Time;durP1;ratioP1;P1;durP2;ratioP2;P2;SDS_P1;SDS_P2;PMS_P1;PMS_P2;Temp;Humidity;BMP_temperature;BMP_pressure;BME280_temperature;BME280_humidity;BME280_pressure;Samples;Min_cycle;Max_cycle;Signal;HPM_P1;HPM_P2
2022/05/29 00:02:11;;;;;;;;;;;;;;;16.18;49.56;100917.03;5007432;28;98624;-67
2022/05/29 00:04:39;;;;;;;;;;;;;;;16.17;49.57;100915.31;5007068;28;98227;-67
2022/05/29 00:07:05;;;;;;;;;;;;;;;16.28;48.89;100913.75;5005855;28;99040;-67
2022/05/29 00:09:38;;;;;;;;;;;;;;;15.97;48.87;100911.06;5001794;28;98876;-68
2022/05/29 00:12:06;;;;;;;;;;;;;;;16.17;49.18;100909.97;5002770;28;97807;-67
2022/05/29 00:14:33;;;;;;;;;;;;;;;16.08;49.41;100916.66;5002093;28;97004;-68
2022/05/29 00:16:59;;;;;;;;;;;;;;;15.88;49.41;100901.78;4995092;28;99226;-69
2022/05/29 00:19:25;;;;;;;;;;;;;;;15.86;49.21;100903.69;5006583;28;98825;-69
2022/05/29 00:21:52;;;;;;;;;;;;;;;15.80;50.17;100903.16;4995417;28;96998;-69
2022/05/29 00:24:18;;;;;;;;;;;;;;;15.98;50.46;100907.47;5001661;28;97089;-68
2022/05/29 00:26:46;;;;;;;;;;;;;;;16.02;49.14;100903.69;5004552;28;99591;-68
2022/05/29 00:29:12;;;;;;;;;;;;;;;16.01;48.96;100895.78;5003591;28;101551;-67
2022/05/29 00:31:38;;;;;;;;;;;;;;;15.80;48.52;100895.16;5002868;28;96996;-68
2022/05/29 00:34:05;;;;;;;;;;;;;;;15.83;48.44;100894.97;5003624;28;97103;-68
2022/05/29 00:36:33;;;;;;;;;;;;;;;15.51;48.69;100896.69;4999475;28;99340;-67
2022/05/29 00:39:00;;;;;;;;;;;;;;;15.54;48.54;100897.44;5002771;28;98879;-68
2022/05/29 00:41:28;;;;;;;;;;;;;;;15.38;49.19;100901.81;5007631;28;96725;-68
2022/05/29 00:44:07;;;;;;;;;;;;;;;15.63;48.52;100890.75;5004909;28;97394;-68
2022/05/29 00:46:34;;;;;;;;;;;;;;;15.65;48.00;100896.00;4998538;28;98215;-68
2022/05/29 00:49:05;;;;;;;;;;;;;;;15.39;47.76;100892.88;5005200;28;98794;-68
2022/05/29 00:51:31;;;;;;;;;;;;;;;15.39;47.99;100887.56;5000426;28;97153;-68
2022/05/29 00:53:57;;;;;;;;;;;;;;;15.33;48.73;100881.72;5002836;28;97015;-67
2022/05/29 00:56:24;;;;;;;;;;;;;;;15.57;47.67;100879.56;5000461;28;98517;-67
2022/05/29 00:58:50;;;;;;;;;;;;;;;15.54;47.10;100888.59;4999804;28;98907;-67
2022/05/29 01:01:18;;;;;;;;;;;;;;;15.67;46.93;100879.00;5004666;28;96889;-69
2022/05/29 01:03:44;;;;;;;;;;;;;;;15.18;47.63;100879.84;5001642;28;96920;-68
2022/05/29 01:06:10;;;;;;;;;;;;;;;15.10;48.53;100883.75;5003300;28;101993;-68
2022/05/29 01:08:37;;;;;;;;;;;;;;;15.74;47.14;100879.53;5004991;28;99517;-68
2022/05/29 01:11:14;;;;;;;;;;;;;;;15.30;47.29;100882.72;5003140;28;99224;-69
2022/05/29 01:13:47;;;;;;;;;;;;;;;15.47;47.46;100881.84;5004699;28;98540;-69
2022/05/29 01:16:18;;;;;;;;;;;;;;;15.37;47.53;100873.47;4996971;28;98956;-68
2022/05/29 01:18:52;;;;;;;;;;;;;;;15.63;47.15;100871.22;5009319;28;99473;-68
2022/05/29 01:21:33;;;;;;;;;;;;;;;15.62;47.36;100867.69;5008020;28;96929;-68
2022/05/29 01:24:13;;;;;;;;;;;;;;;15.38;47.14;100866.34;5004679;28;97076;-68
2022/05/29 01:27:05;;;;;;;;;;;;;;;15.53;47.08;100868.22;5010441;28;98923;-68
2022/05/29 01:29:39;;;;;;;;;;;;;;;15.14;48.36;100868.50;5004785;28;99097;-68
2022/05/29 01:32:09;;;;;;;;;;;;;;;14.91;48.45;100863.50;5010423;28;97105;-68
2022/05/29 01:34:37;;;;;;;;;;;;;;;14.57;49.98;100869.69;5011461;28;96928;-68
2022/05/29 01:37:09;;;;;;;;;;;;;;;14.83;49.62;100869.25;5007112;28;98897;-68
2022/05/29 01:39:38;;;;;;;;;;;;;;;15.02;48.93;100858.50;5005348;28;97909;-68
2022/05/29 01:42:07;;;;;;;;;;;;;;;14.67;49.98;100863.81;5009165;28;97769;-68
2022/05/29 01:44:39;;;;;;;;;;;;;;;15.11;49.06;100868.66;5007082;28;96922;-68
2022/05/29 01:47:08;;;;;;;;;;;;;;;15.07;48.68;100862.66;5000178;28;98882;-68
2022/05/29 01:49:38;;;;;;;;;;;;;;;15.09;48.70;100870.56;5001043;28;97985;-68
2022/05/29 01:52:07;;;;;;;;;;;;;;;14.81;49.35;100870.25;5000135;28;96846;-68
2022/05/29 01:54:35;;;;;;;;;;;;;;;14.72;50.12;100872.44;5008120;28;98702;-68
2022/05/29 01:57:03;;;;;;;;;;;;;;;15.10;48.84;100866.94;5008153;28;97766;-67
2022/05/29 01:59:33;;;;;;;;;;;;;;;15.49;47.96;100866.66;5005971;28;98085;-67
2022/05/29 02:02:02;;;;;;;;;;;;;;;14.98;48.70;100862.25;5005865;28;96925;-68
2022/05/29 02:04:30;;;;;;;;;;;;;;;15.14;48.42;100863.19;5009760;28;96934;-67
2022/05/29 02:09:47;;;;;;;;;;;;;;;15.34;47.81;100860.34;4998416;28;98843;-68
2022/05/29 02:12:16;;;;;;;;;;;;;;;14.85;48.86;100863.81;5007783;28;97248;-69
2022/05/29 02:14:44;;;;;;;;;;;;;;;14.62;49.30;100860.53;5003933;28;96829;-68
2022/05/29 02:17:15;;;;;;;;;;;;;;;14.74;49.70;100857.25;5006733;28;99012;-67
2022/05/29 02:19:44;;;;;;;;;;;;;;;15.15;48.38;100862.25;5006177;28;98855;-67
2022/05/29 02:22:12;;;;;;;;;;;;;;;15.11;48.34;100858.00;5000680;28;98701;-68
2022/05/29 02:24:41;;;;;;;;;;;;;;;14.96;48.72;100854.38;5002422;28;96931;-68
2022/05/29 02:27:10;;;;;;;;;;;;;;;15.19;47.99;100861.13;4997797;28;98988;-66
2022/05/29 02:29:36;;;;;;;;;;;;;;;15.38;47.22;100853.03;5006018;28;98603;-67
2022/05/29 02:32:07;;;;;;;;;;;;;;;15.59;47.10;100848.38;4999012;28;97131;-67
2022/05/29 02:34:40;;;;;;;;;;;;;;;15.53;46.56;100842.44;5007230;28;97890;-67
2022/05/29 02:37:14;;;;;;;;;;;;;;;15.13;47.29;100848.16;5000426;28;99264;-68
2022/05/29 02:39:44;;;;;;;;;;;;;;;15.52;47.05;100850.47;5010187;28;99499;-68
2022/05/29 02:42:16;;;;;;;;;;;;;;;15.47;46.96;100853.41;5010138;28;96991;-68
2022/05/29 02:44:47;;;;;;;;;;;;;;;15.38;47.21;100840.56;5002598;28;97028;-68
2022/05/29 02:47:34;;;;;;;;;;;;;;;15.72;46.54;100841.44;5002600;28;98979;-68
2022/05/29 02:50:11;;;;;;;;;;;;;;;15.52;46.81;100851.38;5003049;28;98919;-67
2022/05/29 02:52:38;;;;;;;;;;;;;;;15.71;46.56;100845.03;5003720;28;97405;-68
2022/05/29 02:55:05;;;;;;;;;;;;;;;15.76;46.18;100853.63;4997131;28;96866;-68
2022/05/29 02:57:33;;;;;;;;;;;;;;;15.51;46.98;100851.44;5006563;28;97995;-68
2022/05/29 03:00:02;;;;;;;;;;;;;;;15.43;47.00;100848.31;5004753;28;98970;-67
2022/05/29 03:02:32;;;;;;;;;;;;;;;15.17;47.67;100849.69;5008877;28;97009;-68
2022/05/29 03:05:01;;;;;;;;;;;;;;;15.09;48.25;100844.81;5006440;28;97181;-68
2022/05/29 03:07:36;;;;;;;;;;;;;;;14.17;50.30;100846.84;5000176;28;98736;-68
2022/05/29 03:10:07;;;;;;;;;;;;;;;14.99;49.19;100848.00;4998808;28;98876;-69
2022/05/29 03:12:38;;;;;;;;;;;;;;;14.88;48.62;100840.59;5010022;28;97101;-67
2022/05/29 03:15:12;;;;;;;;;;;;;;;15.12;48.56;100841.97;5005105;28;97091;-67
2022/05/29 03:17:41;;;;;;;;;;;;;;;15.09;48.57;100839.47;4990318;28;98442;-68
2022/05/29 03:20:09;;;;;;;;;;;;;;;15.10;48.59;100845.63;4999747;28;98155;-67
2022/05/29 03:22:43;;;;;;;;;;;;;;;14.97;49.27;100842.75;5001495;28;96874;-67
2022/05/29 03:25:13;;;;;;;;;;;;;;;15.35;48.48;100846.09;5006720;28;96881;-68
2022/05/29 03:27:42;;;;;;;;;;;;;;;15.34;48.53;100841.69;5008110;28;98145;-67
2022/05/29 03:30:10;;;;;;;;;;;;;;;15.40;48.01;100853.81;5007067;28;98924;-68
2022/05/29 03:32:37;;;;;;;;;;;;;;;15.70;47.68;100845.97;5002122;28;99048;-67
2022/05/29 03:35:16;;;;;;;;;;;;;;;15.77;47.48;100842.91;5003811;28;96988;-67
2022/05/29 03:37:44;;;;;;;;;;;;;;;15.46;47.94;100851.69;5004375;28;98156;-67
2022/05/29 03:40:11;;;;;;;;;;;;;;;15.47;48.27;100840.09;5005534;28;99614;-68
2022/05/29 03:42:37;;;;;;;;;;;;;;;15.71;47.79;100847.72;5003327;28;97856;-67
2022/05/29 03:45:04;;;;;;;;;;;;;;;15.41;48.07;100845.75;5005832;28;96836;-69
2022/05/29 03:47:31;;;;;;;;;;;;;;;15.43;48.33;100845.66;5010097;28;100149;-67
2022/05/29 03:49:57;;;;;;;;;;;;;;;15.30;48.41;100852.56;5004652;28;98778;-67
2022/05/29 03:52:23;;;;;;;;;;;;;;;15.08;49.18;100847.53;4999676;28;96986;-67
2022/05/29 03:54:52;;;;;;;;;;;;;;;15.62;48.14;100838.41;5006908;28;96918;-67
2022/05/29 03:57:18;;;;;;;;;;;;;;;15.85;47.52;100839.81;5006006;28;97839;-67
2022/05/29 03:59:44;;;;;;;;;;;;;;;15.20;48.77;100833.59;5009774;28;99187;-68
2022/05/29 04:02:11;;;;;;;;;;;;;;;15.39;48.62;100836.97;5008858;28;96797;-68
2022/05/29 04:04:37;;;;;;;;;;;;;;;15.50;48.37;100831.91;5004207;28;98384;-68
2022/05/29 04:07:04;;;;;;;;;;;;;;;15.66;48.12;100831.97;5009570;28;101323;-68
2022/05/29 04:12:16;;;;;;;;;;;;;;;15.20;49.18;100830.06;4997262;28;96925;-68
2022/05/29 04:14:44;;;;;;;;;;;;;;;15.59;48.58;100830.59;5007633;28;96891;-68
2022/05/29 04:17:11;;;;;;;;;;;;;;;15.93;47.64;100837.59;5003277;28;103042;-67
2022/05/29 04:19:38;;;;;;;;;;;;;;;15.85;48.05;100837.16;5004322;28;97802;-67
2022/05/29 04:22:07;;;;;;;;;;;;;;;16.00;47.75;100838.97;4998674;28;97751;-68
2022/05/29 04:24:33;;;;;;;;;;;;;;;16.03;47.59;100838.78;5003128;28;96968;-68
2022/05/29 04:27:00;;;;;;;;;;;;;;;15.92;47.82;100839.38;5006847;28;101887;-68
2022/05/29 04:29:27;;;;;;;;;;;;;;;15.77;48.38;100832.25;5003114;28;101928;-67
2022/05/29 04:34:38;;;;;;;;;;;;;;;15.51;48.51;100838.97;4998087;28;99993;-68
2022/05/29 04:37:04;;;;;;;;;;;;;;;15.73;48.26;100832.50;5001487;28;99250;-67
2022/05/29 04:39:34;;;;;;;;;;;;;;;15.60;48.39;100834.13;5006772;28;98793;-67
2022/05/29 04:42:01;;;;;;;;;;;;;;;16.18;47.54;100831.72;5006504;28;96802;-67
2022/05/29 04:44:29;;;;;;;;;;;;;;;16.13;47.47;100840.00;5003489;28;97002;-67
2022/05/29 04:46:57;;;;;;;;;;;;;;;15.67;48.60;100831.03;5006678;28;99433;-68
2022/05/29 04:49:23;;;;;;;;;;;;;;;16.11;47.91;100833.88;5002748;28;99005;-68
2022/05/29 04:51:49;;;;;;;;;;;;;;;15.85;48.17;100826.50;4996219;28;96784;-68
2022/05/29 04:54:15;;;;;;;;;;;;;;;16.17;47.52;100828.19;4996482;28;96981;-68
2022/05/29 04:56:41;;;;;;;;;;;;;;;15.88;48.27;100829.00;5003979;28;98180;-68
2022/05/29 04:59:08;;;;;;;;;;;;;;;16.19;47.76;100823.66;5008045;28;101655;-68
2022/05/29 05:01:36;;;;;;;;;;;;;;;16.44;47.23;100827.53;5005672;28;96860;-67
2022/05/29 05:04:02;;;;;;;;;;;;;;;16.68;46.39;100829.66;5002175;28;98704;-68
2022/05/29 05:06:28;;;;;;;;;;;;;;;16.77;46.28;100828.25;5001021;28;99297;-68
2022/05/29 05:08:54;;;;;;;;;;;;;;;16.88;46.43;100836.47;4997546;28;99218;-68
2022/05/29 05:11:21;;;;;;;;;;;;;;;16.51;46.68;100824.44;4996638;28;98714;-67
2022/05/29 05:13:47;;;;;;;;;;;;;;;16.54;46.77;100834.06;5003434;28;97288;-67
2022/05/29 05:16:13;;;;;;;;;;;;;;;16.43;46.69;100829.34;4996842;28;99356;-67
2022/05/29 05:18:41;;;;;;;;;;;;;;;16.83;46.27;100827.88;4999356;28;98062;-68
2022/05/29 05:21:07;;;;;;;;;;;;;;;17.09;45.95;100835.19;4998580;28;96848;-67
2022/05/29 05:23:34;;;;;;;;;;;;;;;17.21;45.44;100822.03;5004011;28;96841;-67
2022/05/29 05:26:00;;;;;;;;;;;;;;;15.79;48.42;100830.38;5002194;28;100937;-67
2022/05/29 05:28:27;;;;;;;;;;;;;;;15.80;48.81;100831.22;5007650;28;97829;-68
2022/05/29 05:30:53;;;;;;;;;;;;;;;16.53;47.29;100827.03;5003529;28;97850;-67
2022/05/29 05:33:19;;;;;;;;;;;;;;;16.15;47.67;100824.75;5003703;28;96956;-67
2022/05/29 05:35:47;;;;;;;;;;;;;;;16.65;47.00;100832.53;5001655;28;99520;-67
2022/05/29 05:38:13;;;;;;;;;;;;;;;16.74;46.52;100839.97;4997170;28;99643;-68
2022/05/29 05:40:42;;;;;;;;;;;;;;;16.64;46.61;100828.13;5002153;28;98627;-67
2022/05/29 05:43:09;;;;;;;;;;;;;;;16.92;46.07;100830.00;5005417;28;96878;-67
2022/05/29 05:45:35;;;;;;;;;;;;;;;16.43;47.62;100832.00;4999923;28;98178;-67
2022/05/29 05:48:02;;;;;;;;;;;;;;;16.07;48.18;100823.47;5003144;28;98834;-68
2022/05/29 05:50:31;;;;;;;;;;;;;;;16.21;48.01;100827.06;5000100;28;97356;-68
2022/05/29 05:52:58;;;;;;;;;;;;;;;16.30;47.82;100828.34;5007404;28;97132;-68
2022/05/29 05:55:25;;;;;;;;;;;;;;;16.29;47.62;100832.81;5004796;28;99126;-67
2022/05/29 05:57:53;;;;;;;;;;;;;;;16.86;46.48;100830.38;5007600;28;102068;-68
2022/05/29 06:00:20;;;;;;;;;;;;;;;16.88;46.52;100839.13;5000526;28;96845;-67
2022/05/29 06:02:47;;;;;;;;;;;;;;;16.18;48.62;100837.06;5001781;28;96833;-67
2022/05/29 06:05:14;;;;;;;;;;;;;;;16.96;46.54;100836.88;5000432;28;98944;-68
2022/05/29 06:07:40;;;;;;;;;;;;;;;17.00;46.34;100842.91;5006052;28;99731;-67
2022/05/29 06:10:09;;;;;;;;;;;;;;;16.17;48.11;100835.31;5003787;28;97543;-67
2022/05/29 06:12:36;;;;;;;;;;;;;;;16.23;47.79;100834.97;5005984;28;96908;-67
2022/05/29 06:15:03;;;;;;;;;;;;;;;16.50;47.54;100838.72;5008396;28;99459;-68
2022/05/29 06:17:31;;;;;;;;;;;;;;;16.59;46.90;100827.50;4997975;28;97950;-68
2022/05/29 06:19:57;;;;;;;;;;;;;;;16.16;48.59;100830.94;5007718;28;96975;-68
2022/05/29 06:22:23;;;;;;;;;;;;;;;16.98;46.54;100836.78;4999913;28;96863;-68
2022/05/29 06:24:49;;;;;;;;;;;;;;;16.61;47.29;100840.78;5008886;28;98923;-67
2022/05/29 06:27:17;;;;;;;;;;;;;;;16.71;47.10;100836.63;5005509;28;99158;-67
2022/05/29 06:29:43;;;;;;;;;;;;;;;17.09;46.37;100839.66;5012025;27;97284;-68
2022/05/29 06:32:12;;;;;;;;;;;;;;;17.28;45.60;100844.72;5005946;28;96869;-68
2022/05/29 06:34:38;;;;;;;;;;;;;;;17.91;44.33;100842.53;5005248;28;98982;-68
2022/05/29 06:37:05;;;;;;;;;;;;;;;17.71;44.57;100834.94;5006864;28;99269;-68
2022/05/29 06:39:32;;;;;;;;;;;;;;;18.21;43.65;100840.53;5002781;28;98869;-68
2022/05/29 06:41:58;;;;;;;;;;;;;;;17.86;43.89;100839.28;5005626;28;97569;-68
2022/05/29 06:44:26;;;;;;;;;;;;;;;17.70;44.16;100839.41;5004715;28;98951;-69
2022/05/29 06:46:55;;;;;;;;;;;;;;;17.80;44.03;100832.50;4999604;28;99121;-69
2022/05/29 06:49:21;;;;;;;;;;;;;;;17.74;44.18;100832.03;5005245;28;97180;-67
2022/05/29 06:51:48;;;;;;;;;;;;;;;17.69;44.51;100843.03;5006850;28;96999;-68
2022/05/29 06:54:14;;;;;;;;;;;;;;;18.07;43.72;100834.38;5003582;28;100447;-68
2022/05/29 06:56:40;;;;;;;;;;;;;;;17.88;43.90;100840.91;5007751;28;99058;-69
2022/05/29 06:59:07;;;;;;;;;;;;;;;17.76;43.79;100839.03;5009957;28;97256;-68
2022/05/29 07:07:03;;;;;;;;;;;;;;;18.07;43.40;100840.56;5009288;28;97664;-67
2022/05/29 07:09:31;;;;;;;;;;;;;;;18.25;42.87;100841.19;5006318;28;96836;-68
2022/05/29 07:12:00;;;;;;;;;;;;;;;18.42;42.07;100838.25;5002556;28;96851;-68
2022/05/29 07:14:26;;;;;;;;;;;;;;;18.42;42.03;100838.25;4998599;28;97865;-68
2022/05/29 07:16:54;;;;;;;;;;;;;;;18.49;41.98;100831.53;5008882;28;101693;-68
2022/05/29 07:19:22;;;;;;;;;;;;;;;18.74;41.41;100837.94;5003982;28;97886;-68
2022/05/29 07:21:48;;;;;;;;;;;;;;;18.90;41.21;100839.50;5003644;28;96925;-67
2022/05/29 07:24:15;;;;;;;;;;;;;;;18.77;41.43;100840.44;5008142;28;99867;-68
2022/05/29 07:26:41;;;;;;;;;;;;;;;18.62;41.95;100840.50;5007333;28;97535;-68
2022/05/29 07:29:07;;;;;;;;;;;;;;;18.68;41.65;100845.44;5008296;28;97669;-68
2022/05/29 07:31:34;;;;;;;;;;;;;;;18.90;40.43;100843.97;4999835;28;98230;-69
2022/05/29 07:34:01;;;;;;;;;;;;;;;18.00;41.32;100851.75;5001961;28;99961;-69
2022/05/29 07:36:28;;;;;;;;;;;;;;;17.84;42.26;100847.41;5006097;28;99148;-68
2022/05/29 07:38:54;;;;;;;;;;;;;;;17.79;42.02;100843.28;4999315;28;98661;-68
2022/05/29 07:44:13;;;;;;;;;;;;;;;18.53;40.71;100834.84;4964124;28;97743;-69
2022/05/29 07:46:39;;;;;;;;;;;;;;;18.96;39.73;100835.53;4999023;28;98473;-69
2022/05/29 07:49:07;;;;;;;;;;;;;;;19.10;39.97;100843.44;5004764;28;96837;-68
2022/05/29 07:51:34;;;;;;;;;;;;;;;18.88;40.18;100843.22;5003954;28;98534;-68
2022/05/29 07:54:00;;;;;;;;;;;;;;;18.90;40.32;100844.84;5000435;28;99107;-69
2022/05/29 07:56:27;;;;;;;;;;;;;;;18.48;41.48;100850.38;5004630;28;99856;-69
2022/05/29 07:58:53;;;;;;;;;;;;;;;18.33;43.00;100858.44;5002802;28;97083;-70
2022/05/29 08:01:20;;;;;;;;;;;;;;;18.57;42.73;100850.66;5005068;28;96886;-68
2022/05/29 08:03:46;;;;;;;;;;;;;;;18.54;42.73;100856.16;5004746;28;98944;-68
2022/05/29 08:06:14;;;;;;;;;;;;;;;18.73;42.63;100857.63;5006882;28;98911;-68
2022/05/29 08:08:41;;;;;;;;;;;;;;;18.52;42.69;100852.72;5000329;28;96834;-68
2022/05/29 08:11:08;;;;;;;;;;;;;;;18.56;42.03;100850.75;5005208;28;97411;-68
2022/05/29 08:13:35;;;;;;;;;;;;;;;17.77;43.84;100856.78;4999635;28;99589;-68
2022/05/29 08:16:02;;;;;;;;;;;;;;;18.46;42.77;100844.25;4993588;28;99256;-68
2022/05/29 08:18:28;;;;;;;;;;;;;;;18.82;41.59;100852.53;4994167;28;97538;-68
2022/05/29 08:20:55;;;;;;;;;;;;;;;18.35;41.15;100847.66;5004795;28;96822;-67
2022/05/29 08:23:23;;;;;;;;;;;;;;;18.79;40.87;100847.38;4989280;28;99740;-68
2022/05/29 08:31:19;;;;;;;;;;;;;;;19.85;38.68;100842.56;4995949;28;97643;-68
2022/05/29 08:33:47;;;;;;;;;;;;;;;19.81;38.45;100835.72;4997537;28;99415;-68
2022/05/29 08:36:15;;;;;;;;;;;;;;;19.69;38.18;100844.63;5000040;28;99181;-68
2022/05/29 08:38:44;;;;;;;;;;;;;;;19.47;37.94;100836.41;4992452;28;97174;-69
2022/05/29 08:41:12;;;;;;;;;;;;;;;19.76;37.27;100845.91;5002733;28;97052;-69
2022/05/29 08:43:40;;;;;;;;;;;;;;;20.07;36.83;100843.69;5000258;28;99647;-69
2022/05/29 08:46:09;;;;;;;;;;;;;;;20.38;36.35;100836.94;4999221;28;98844;-68
2022/05/29 08:48:36;;;;;;;;;;;;;;;21.48;34.97;100836.38;4989447;28;97764;-67
2022/05/29 08:51:08;;;;;;;;;;;;;;;22.17;33.39;100834.41;4993352;28;97714;-66
2022/05/29 08:53:36;;;;;;;;;;;;;;;22.38;32.09;100833.59;4992302;28;97785;-69
2022/05/29 08:56:09;;;;;;;;;;;;;;;21.78;33.63;100833.09;4994012;28;98162;-69
2022/05/29 08:58:40;;;;;;;;;;;;;;;20.64;34.89;100830.44;4999839;28;98043;-68
2022/05/29 09:01:16;;;;;;;;;;;;;;;19.79;35.59;100826.06;4999620;28;97435;-68
2022/05/29 09:03:49;;;;;;;;;;;;;;;19.42;36.25;100831.34;4998572;28;99908;-68
2022/05/29 09:06:18;;;;;;;;;;;;;;;19.06;37.69;100836.59;5004036;28;100720;-68
2022/05/29 09:08:48;;;;;;;;;;;;;;;18.85;40.11;100838.06;5014750;28;97175;-68
2022/05/29 09:11:19;;;;;;;;;;;;;;;18.86;40.80;100839.78;5003507;28;97236;-67
2022/05/29 09:13:49;;;;;;;;;;;;;;;18.83;40.81;100840.88;5007007;28;98972;-68
2022/05/29 09:16:16;;;;;;;;;;;;;;;19.02;41.13;100844.00;4991964;28;99983;-69
2022/05/29 09:18:44;;;;;;;;;;;;;;;19.01;41.40;100846.78;4990849;28;97305;-69
2022/05/29 09:21:12;;;;;;;;;;;;;;;19.11;41.96;100842.47;4989646;28;97806;-68
2022/05/29 09:23:42;;;;;;;;;;;;;;;19.44;42.48;100844.63;4992679;28;99058;-68
2022/05/29 09:26:11;;;;;;;;;;;;;;;19.96;40.58;100840.91;4999236;28;98845;-68
2022/05/29 09:28:40;;;;;;;;;;;;;;;20.90;38.90;100841.88;5000950;28;97678;-68
2022/05/29 09:31:07;;;;;;;;;;;;;;;21.33;37.40;100837.59;4997967;28;97275;-70
2022/05/29 09:33:33;;;;;;;;;;;;;;;21.53;36.63;100836.00;5006415;28;98354;-69
2022/05/29 09:36:03;;;;;;;;;;;;;;;21.35;36.53;100830.25;5005330;28;98780;-68
2022/05/29 09:38:32;;;;;;;;;;;;;;;21.24;36.36;100832.09;5004108;28;96898;-69
2022/05/29 09:41:02;;;;;;;;;;;;;;;21.03;35.67;100835.44;4997802;28;98536;-68
2022/05/29 09:43:29;;;;;;;;;;;;;;;20.65;36.45;100834.84;4996966;28;100485;-67
2022/05/29 09:45:56;;;;;;;;;;;;;;;20.01;37.82;100834.25;5003759;28;99061;-69
2022/05/29 09:51:14;;;;;;;;;;;;;;;18.87;41.40;100844.19;4996006;28;97461;-68
2022/05/29 09:53:44;;;;;;;;;;;;;;;19.30;41.08;100839.38;4994593;28;100047;-69
2022/05/29 09:56:12;;;;;;;;;;;;;;;19.09;41.31;100844.44;5001199;28;101300;-69
2022/05/29 09:58:44;;;;;;;;;;;;;;;19.42;40.31;100836.72;4996141;28;100789;-68
2022/05/29 10:01:12;;;;;;;;;;;;;;;19.22;41.09;100828.34;4999545;28;97886;-69
2022/05/29 19:13:18;;;;;;;;;;;;;;;;;;;;;
2022/05/29 19:21:42;;;;;;;;;;;;;;;19.58;39.54;100678.38;4825782;29;97603;-81
2022/05/29 19:24:10;;;;;;;;;;;;;;;19.43;41.07;100685.66;4875106;28;97147;-82
2022/05/29 19:26:42;;;;;;;;;;;;;;;19.43;39.99;100682.13;4882523;28;99912;-83
2022/05/29 19:29:11;;;;;;;;;;;;;;;19.30;39.65;100686.66;4877670;28;100066;-80
2022/05/29 19:31:40;;;;;;;;;;;;;;;19.37;39.39;100688.78;4880817;28;97300;-82
2022/05/29 19:34:09;;;;;;;;;;;;;;;19.37;39.15;100683.44;4879709;28;96687;-81
2022/05/29 19:36:36;;;;;;;;;;;;;;;19.36;39.47;100692.44;4875674;28;99281;-82
2022/05/29 19:39:03;;;;;;;;;;;;;;;19.55;39.33;100691.16;4879842;28;99057;-83
2022/05/29 19:41:32;;;;;;;;;;;;;;;19.46;39.51;100688.16;4880366;28;96743;-83
2022/05/29 19:43:59;;;;;;;;;;;;;;;19.38;39.75;100695.00;4881810;28;97125;-81
2022/05/29 19:46:30;;;;;;;;;;;;;;;19.29;40.37;100701.91;4869519;28;97037;-82
2022/05/29 19:48:57;;;;;;;;;;;;;;;19.27;39.14;100692.25;4880228;28;101522;-82
2022/05/29 19:51:25;;;;;;;;;;;;;;;19.42;39.14;100696.50;4878542;28;97552;-82
2022/05/29 19:53:52;;;;;;;;;;;;;;;19.24;39.66;100690.66;4879892;28;97085;-82
2022/05/29 19:56:20;;;;;;;;;;;;;;;19.31;39.76;100693.75;4885730;28;100063;-80
2022/05/29 19:58:52;;;;;;;;;;;;;;;19.45;39.39;100691.78;4877353;28;98042;-81
2022/05/29 20:01:20;;;;;;;;;;;;;;;19.24;39.96;100692.47;4875343;28;97664;-80
2022/05/29 20:03:49;;;;;;;;;;;;;;;19.46;39.57;100693.53;4878412;28;96932;-80
2022/05/29 20:06:16;;;;;;;;;;;;;;;19.29;40.19;100695.69;4883035;28;99057;-81
2022/05/29 20:08:43;;;;;;;;;;;;;;;18.93;39.60;100693.81;4888213;28;101272;-81
2022/05/29 20:11:13;;;;;;;;;;;;;;;18.98;40.11;100689.84;4888060;28;96733;-81
2022/05/29 20:13:40;;;;;;;;;;;;;;;18.91;40.09;100693.06;4883483;28;96853;-81
2022/05/29 20:16:10;;;;;;;;;;;;;;;18.99;40.32;100696.91;4880639;28;97599;-80
2022/05/29 20:18:40;;;;;;;;;;;;;;;18.25;41.55;100699.41;4886600;28;97062;-78
2022/05/29 20:21:08;;;;;;;;;;;;;;;18.39;41.70;100693.13;4886149;28;98198;-80
2022/05/29 20:23:34;;;;;;;;;;;;;;;18.18;42.10;100700.81;4882706;28;96837;-81
2022/05/29 20:26:01;;;;;;;;;;;;;;;18.41;41.89;100696.56;4887025;28;99348;-80
2022/05/29 20:28:27;;;;;;;;;;;;;;;18.42;41.76;100692.94;4884343;28;98923;-79
2022/05/29 20:30:54;;;;;;;;;;;;;;;18.48;42.17;100701.41;4880425;28;96838;-79
2022/05/29 20:33:20;;;;;;;;;;;;;;;18.29;42.19;100696.44;4888315;28;97156;-80
2022/05/29 20:35:47;;;;;;;;;;;;;;;18.36;42.25;100696.88;4883348;28;99581;-80
2022/05/29 20:38:16;;;;;;;;;;;;;;;18.46;42.24;100699.78;4885477;28;97881;-81
2022/05/29 20:40:47;;;;;;;;;;;;;;;18.33;42.56;100705.13;4882483;28;97659;-79
2022/05/29 20:43:14;;;;;;;;;;;;;;;18.33;43.04;100697.09;4887644;28;96965;-79
2022/05/29 20:45:40;;;;;;;;;;;;;;;18.67;42.24;100692.97;4885353;28;97892;-80
2022/05/29 20:48:07;;;;;;;;;;;;;;;18.62;42.51;100695.13;4884445;28;98799;-81
2022/05/29 20:50:34;;;;;;;;;;;;;;;18.74;42.21;100693.41;4870254;28;97025;-81
2022/05/29 20:53:01;;;;;;;;;;;;;;;18.86;42.42;100703.25;4880243;28;96912;-79
2022/05/29 20:55:29;;;;;;;;;;;;;;;18.61;42.99;100698.75;4876312;28;98628;-80
2022/05/29 20:57:57;;;;;;;;;;;;;;;18.22;44.06;100703.19;4877971;28;99050;-79
2022/05/29 21:00:24;;;;;;;;;;;;;;;17.83;45.73;100693.34;4877473;28;97531;-80
2022/05/29 21:02:50;;;;;;;;;;;;;;;17.74;45.85;100701.97;4877960;28;96921;-80
2022/05/29 21:05:17;;;;;;;;;;;;;;;18.10;45.69;100695.13;4880593;28;101340;-81
2022/05/29 21:07:43;;;;;;;;;;;;;;;18.32;45.10;100700.72;4873415;28;97816;-79
2022/05/29 21:10:10;;;;;;;;;;;;;;;18.39;44.93;100698.47;4873870;28;98851;-79
2022/05/29 21:12:37;;;;;;;;;;;;;;;18.41;45.06;100696.56;4870165;28;97771;-82
2022/05/29 21:15:04;;;;;;;;;;;;;;;17.80;45.76;100690.84;4886145;28;97850;-81
2022/05/29 21:17:31;;;;;;;;;;;;;;;17.92;45.57;100691.84;4889495;28;99760;-78
2022/05/29 21:19:57;;;;;;;;;;;;;;;18.25;46.01;100702.09;4891282;28;96665;-81
2022/05/29 21:22:24;;;;;;;;;;;;;;;18.47;45.47;100697.00;4888164;28;97200;-78
2022/05/29 21:24:51;;;;;;;;;;;;;;;18.31;45.97;100701.72;4880779;28;99172;-81
2022/05/29 21:27:17;;;;;;;;;;;;;;;18.56;45.17;100695.56;4878419;28;98000;-82
2022/05/29 21:29:45;;;;;;;;;;;;;;;18.56;45.24;100696.41;4882626;28;96980;-82
2022/05/29 21:32:11;;;;;;;;;;;;;;;18.31;45.66;100699.84;4879572;28;97170;-82
2022/05/29 21:34:37;;;;;;;;;;;;;;;18.39;45.38;100688.63;4883472;28;98312;-82
2022/05/29 21:39:51;;;;;;;;;;;;;;;17.98;46.09;100698.63;4884828;28;96770;-81
2022/05/29 21:42:17;;;;;;;;;;;;;;;17.90;46.41;100702.66;4883920;28;96794;-82
2022/05/29 21:44:46;;;;;;;;;;;;;;;18.13;46.00;100700.25;4887339;28;97974;-81
2022/05/29 21:47:12;;;;;;;;;;;;;;;18.37;45.84;100695.94;4882207;28;97760;-83
2022/05/29 21:49:39;;;;;;;;;;;;;;;18.46;45.36;100694.44;4880389;28;96863;-79
2022/05/29 21:52:05;;;;;;;;;;;;;;;18.38;45.32;100697.63;4879459;28;97579;-79
2022/05/29 21:54:32;;;;;;;;;;;;;;;17.80;46.35;100698.88;4879338;28;98871;-80
2022/05/29 21:56:58;;;;;;;;;;;;;;;17.26;47.76;100699.78;4878136;28;98881;-82
2022/05/29 21:59:25;;;;;;;;;;;;;;;17.64;47.12;100694.66;4876966;28;96803;-81
2022/05/29 22:01:52;;;;;;;;;;;;;;;17.72;47.15;100697.69;4877755;28;97459;-81
2022/05/29 22:04:18;;;;;;;;;;;;;;;17.68;47.40;100697.00;4876351;28;97058;-82
2022/05/29 22:06:46;;;;;;;;;;;;;;;17.89;47.04;100700.09;4878344;28;99195;-79
2022/05/29 22:09:12;;;;;;;;;;;;;;;18.10;46.85;100697.81;4877297;28;96911;-79
2022/05/29 22:11:39;;;;;;;;;;;;;;;18.08;46.08;100700.56;4878985;28;96940;-81
2022/05/29 22:14:05;;;;;;;;;;;;;;;18.12;46.08;100701.22;4876469;28;99884;-83
2022/05/29 22:16:32;;;;;;;;;;;;;;;17.70;47.04;100702.25;4877710;28;98122;-80
2022/05/29 22:19:00;;;;;;;;;;;;;;;18.05;46.55;100707.97;4879539;28;97005;-81
2022/05/29 22:21:28;;;;;;;;;;;;;;;18.35;46.21;100703.19;4884436;28;97086;-82
2022/05/29 22:23:55;;;;;;;;;;;;;;;18.14;46.51;100694.81;4881374;28;100936;-81
2022/05/29 22:26:22;;;;;;;;;;;;;;;18.12;46.56;100698.53;4877691;28;99895;-81